< < Back
Terminal Aerodrome Forecast


Current Version              Previous Versions:   1  2  3  4  5  6  7  8  9  

Terminal Aerodrome Forecast

725
FTUS44 KHUN 310526
TAFHSV
TAF
KHSV 310526Z 3106/0106 15005KT P6SM BKN120
      TEMPO 3107/3111 4SM BR BKN010
     FM311200 18008KT P6SM -SHRA OVC035
     FM312000 24010G20KT P6SM BKN050
      TEMPO 3120/3124 5SM -TSRA BR BKN030CB
     FM010000 VRB03KT P6SM BKN150=

Latest METAR

150
SAUS80 KWBC 310800
MTRHSV
METAR KHSV 310753Z AUTO 14003KT 10SM CLR 22/21 A3009 RMK AO2 SLP182
T02220211 $


USA.gov is the U.S. government's official web portal to all federal, state and local government web resources and services.